sensor_id;sensor_type;location;lat;lon;timestamp;temperature;humidity
4856;DHT22;2442;48.676;7.986;2022-07-09T00:01:22;12.70;99.90
4856;DHT22;2442;48.676;7.986;2022-07-09T00:03:49;12.70;99.90
4856;DHT22;2442;48.676;7.986;2022-07-09T00:06:17;12.70;99.90
4856;DHT22;2442;48.676;7.986;2022-07-09T00:08:44;12.70;99.90
4856;DHT22;2442;48.676;7.986;2022-07-09T00:11:11;12.70;99.90
4856;DHT22;2442;48.676;7.986;2022-07-09T00:13:38;12.70;99.90
4856;DHT22;2442;48.676;7.986;2022-07-09T00:16:05;12.60;99.90
4856;DHT22;2442;48.676;7.986;2022-07-09T00:18:33;12.50;99.90
4856;DHT22;2442;48.676;7.986;2022-07-09T00:21:00;12.40;99.90
4856;DHT22;2442;48.676;7.986;2022-07-09T00:23:26;12.30;99.90
4856;DHT22;2442;48.676;7.986;2022-07-09T00:25:53;12.30;99.90
4856;DHT22;2442;48.676;7.986;2022-07-09T00:28:20;12.40;99.90
4856;DHT22;2442;48.676;7.986;2022-07-09T00:30:47;12.30;99.90
4856;DHT22;2442;48.676;7.986;2022-07-09T00:33:14;12.20;99.90
4856;DHT22;2442;48.676;7.986;2022-07-09T00:35:42;12.20;99.90
4856;DHT22;2442;48.676;7.986;2022-07-09T00:38:08;12.20;99.90
4856;DHT22;2442;48.676;7.986;2022-07-09T00:40:35;12.20;99.90
4856;DHT22;2442;48.676;7.986;2022-07-09T00:43:02;12.10;99.90
4856;DHT22;2442;48.676;7.986;2022-07-09T00:45:29;12.00;99.90
4856;DHT22;2442;48.676;7.986;2022-07-09T00:47:56;12.00;99.90
4856;DHT22;2442;48.676;7.986;2022-07-09T00:50:23;12.00;99.90
4856;DHT22;2442;48.676;7.986;2022-07-09T00:52:51;11.90;99.90
4856;DHT22;2442;48.676;7.986;2022-07-09T00:57:49;12.00;99.90
4856;DHT22;2442;48.676;7.986;2022-07-09T01:00:16;12.00;99.90
4856;DHT22;2442;48.676;7.986;2022-07-09T01:02:44;12.00;99.90
4856;DHT22;2442;48.676;7.986;2022-07-09T01:05:11;12.00;99.90
4856;DHT22;2442;48.676;7.986;2022-07-09T01:07:38;12.10;99.90
4856;DHT22;2442;48.676;7.986;2022-07-09T01:10:07;12.00;99.90
4856;DHT22;2442;48.676;7.986;2022-07-09T01:12:34;11.90;99.90
4856;DHT22;2442;48.676;7.986;2022-07-09T01:15:00;11.90;99.90
4856;DHT22;2442;48.676;7.986;2022-07-09T01:17:27;11.90;99.90
4856;DHT22;2442;48.676;7.986;2022-07-09T01:19:54;11.90;99.90
4856;DHT22;2442;48.676;7.986;2022-07-09T01:22:22;11.90;99.90
4856;DHT22;2442;48.676;7.986;2022-07-09T01:24:50;11.70;99.90
4856;DHT22;2442;48.676;7.986;2022-07-09T01:27:18;11.50;99.90
4856;DHT22;2442;48.676;7.986;2022-07-09T01:29:45;11.40;99.90
4856;DHT22;2442;48.676;7.986;2022-07-09T01:32:15;11.50;99.90
4856;DHT22;2442;48.676;7.986;2022-07-09T01:34:42;11.60;99.90
4856;DHT22;2442;48.676;7.986;2022-07-09T01:37:09;11.70;99.90
4856;DHT22;2442;48.676;7.986;2022-07-09T01:39:37;11.80;99.90
4856;DHT22;2442;48.676;7.986;2022-07-09T01:42:15;11.80;99.90
4856;DHT22;2442;48.676;7.986;2022-07-09T01:44:42;11.70;99.90
4856;DHT22;2442;48.676;7.986;2022-07-09T01:47:09;11.60;99.90
4856;DHT22;2442;48.676;7.986;2022-07-09T01:49:36;11.50;99.90
4856;DHT22;2442;48.676;7.986;2022-07-09T01:52:04;11.50;99.90
4856;DHT22;2442;48.676;7.986;2022-07-09T01:54:30;11.50;99.90
4856;DHT22;2442;48.676;7.986;2022-07-09T01:56:59;11.50;99.90
4856;DHT22;2442;48.676;7.986;2022-07-09T01:59:25;11.60;99.90
4856;DHT22;2442;48.676;7.986;2022-07-09T02:01:52;11.70;99.90
4856;DHT22;2442;48.676;7.986;2022-07-09T02:04:19;11.60;99.90
4856;DHT22;2442;48.676;7.986;2022-07-09T02:06:46;11.60;99.90
4856;DHT22;2442;48.676;7.986;2022-07-09T02:09:12;11.50;99.90
4856;DHT22;2442;48.676;7.986;2022-07-09T02:11:39;11.40;99.90
4856;DHT22;2442;48.676;7.986;2022-07-09T02:14:08;11.30;99.90
4856;DHT22;2442;48.676;7.986;2022-07-09T02:16:34;11.30;99.90
4856;DHT22;2442;48.676;7.986;2022-07-09T02:19:01;11.20;99.90
4856;DHT22;2442;48.676;7.986;2022-07-09T02:21:28;11.20;99.90
4856;DHT22;2442;48.676;7.986;2022-07-09T02:23:55;11.20;99.90
4856;DHT22;2442;48.676;7.986;2022-07-09T02:26:24;11.20;99.90
4856;DHT22;2442;48.676;7.986;2022-07-09T02:28:51;11.20;99.90
4856;DHT22;2442;48.676;7.986;2022-07-09T02:31:19;11.20;99.90
4856;DHT22;2442;48.676;7.986;2022-07-09T02:33:46;11.10;99.90
4856;DHT22;2442;48.676;7.986;2022-07-09T02:36:13;11.10;99.90
4856;DHT22;2442;48.676;7.986;2022-07-09T02:38:40;11.00;99.90
4856;DHT22;2442;48.676;7.986;2022-07-09T02:41:07;11.00;99.90
4856;DHT22;2442;48.676;7.986;2022-07-09T02:43:34;10.90;99.90
4856;DHT22;2442;48.676;7.986;2022-07-09T02:46:01;10.90;99.90
4856;DHT22;2442;48.676;7.986;2022-07-09T02:48:30;10.80;99.90
4856;DHT22;2442;48.676;7.986;2022-07-09T02:50:58;10.80;99.90
4856;DHT22;2442;48.676;7.986;2022-07-09T02:53:25;10.80;99.90
4856;DHT22;2442;48.676;7.986;2022-07-09T02:55:52;10.90;99.90
4856;DHT22;2442;48.676;7.986;2022-07-09T02:58:19;10.90;99.90
4856;DHT22;2442;48.676;7.986;2022-07-09T03:00:46;10.90;99.90
4856;DHT22;2442;48.676;7.986;2022-07-09T03:03:13;10.90;99.90
4856;DHT22;2442;48.676;7.986;2022-07-09T03:05:42;10.90;99.90
4856;DHT22;2442;48.676;7.986;2022-07-09T03:08:09;10.90;99.90
4856;DHT22;2442;48.676;7.986;2022-07-09T03:10:36;10.90;99.90
4856;DHT22;2442;48.676;7.986;2022-07-09T03:13:03;11.00;99.90
4856;DHT22;2442;48.676;7.986;2022-07-09T03:15:30;11.00;99.90
4856;DHT22;2442;48.676;7.986;2022-07-09T03:17:57;10.90;99.90
4856;DHT22;2442;48.676;7.986;2022-07-09T03:20:23;10.80;99.90
4856;DHT22;2442;48.676;7.986;2022-07-09T03:22:52;10.70;99.90
4856;DHT22;2442;48.676;7.986;2022-07-09T03:25:19;10.70;99.90
4856;DHT22;2442;48.676;7.986;2022-07-09T03:27:46;10.60;99.90
4856;DHT22;2442;48.676;7.986;2022-07-09T03:30:13;10.60;99.90
4856;DHT22;2442;48.676;7.986;2022-07-09T03:32:39;10.50;99.90
4856;DHT22;2442;48.676;7.986;2022-07-09T03:35:07;10.50;99.90
4856;DHT22;2442;48.676;7.986;2022-07-09T03:37:34;10.60;99.90
4856;DHT22;2442;48.676;7.986;2022-07-09T03:40:03;10.60;99.90
4856;DHT22;2442;48.676;7.986;2022-07-09T03:42:30;10.70;99.90
4856;DHT22;2442;48.676;7.986;2022-07-09T03:44:57;10.80;99.90
4856;DHT22;2442;48.676;7.986;2022-07-09T03:47:23;10.80;99.90
4856;DHT22;2442;48.676;7.986;2022-07-09T03:49:50;10.90;99.90
4856;DHT22;2442;48.676;7.986;2022-07-09T03:52:17;10.80;99.90
4856;DHT22;2442;48.676;7.986;2022-07-09T03:54:44;10.70;99.90
4856;DHT22;2442;48.676;7.986;2022-07-09T03:57:12;10.60;99.90
4856;DHT22;2442;48.676;7.986;2022-07-09T03:59:39;10.50;99.90
4856;DHT22;2442;48.676;7.986;2022-07-09T04:02:06;10.70;99.90
4856;DHT22;2442;48.676;7.986;2022-07-09T04:04:33;10.70;99.90
4856;DHT22;2442;48.676;7.986;2022-07-09T04:07:00;10.60;99.90
4856;DHT22;2442;48.676;7.986;2022-07-09T04:09:26;10.70;99.90
4856;DHT22;2442;48.676;7.986;2022-07-09T04:11:53;10.70;99.90
4856;DHT22;2442;48.676;7.986;2022-07-09T04:14:21;10.70;99.90
4856;DHT22;2442;48.676;7.986;2022-07-09T04:16:48;10.70;99.90
4856;DHT22;2442;48.676;7.986;2022-07-09T04:19:15;10.60;99.90
4856;DHT22;2442;48.676;7.986;2022-07-09T04:21:41;10.60;99.90
4856;DHT22;2442;48.676;7.986;2022-07-09T04:24:08;10.70;99.90
4856;DHT22;2442;48.676;7.986;2022-07-09T04:26:35;10.70;99.90
4856;DHT22;2442;48.676;7.986;2022-07-09T04:29:02;10.60;99.90
4856;DHT22;2442;48.676;7.986;2022-07-09T04:31:30;10.70;99.90
4856;DHT22;2442;48.676;7.986;2022-07-09T04:33:57;10.70;99.90
4856;DHT22;2442;48.676;7.986;2022-07-09T04:36:23;10.80;99.90
4856;DHT22;2442;48.676;7.986;2022-07-09T04:38:50;10.90;99.90
4856;DHT22;2442;48.676;7.986;2022-07-09T04:41:17;10.90;99.90
4856;DHT22;2442;48.676;7.986;2022-07-09T04:43:44;11.00;99.90
4856;DHT22;2442;48.676;7.986;2022-07-09T04:46:10;11.00;99.90
4856;DHT22;2442;48.676;7.986;2022-07-09T04:48:39;11.10;99.90
4856;DHT22;2442;48.676;7.986;2022-07-09T04:51:06;11.20;99.90
4856;DHT22;2442;48.676;7.986;2022-07-09T04:53:32;11.30;99.90
4856;DHT22;2442;48.676;7.986;2022-07-09T04:55:59;11.50;99.90
4856;DHT22;2442;48.676;7.986;2022-07-09T04:58:26;12.00;99.90
4856;DHT22;2442;48.676;7.986;2022-07-09T05:00:55;12.30;99.90
4856;DHT22;2442;48.676;7.986;2022-07-09T05:03:22;12.30;99.90
4856;DHT22;2442;48.676;7.986;2022-07-09T05:05:50;12.50;99.90
4856;DHT22;2442;48.676;7.986;2022-07-09T05:08:16;12.70;99.90
4856;DHT22;2442;48.676;7.986;2022-07-09T05:10:44;12.80;99.90
4856;DHT22;2442;48.676;7.986;2022-07-09T05:13:11;12.90;99.90
4856;DHT22;2442;48.676;7.986;2022-07-09T05:15:37;13.30;99.90
4856;DHT22;2442;48.676;7.986;2022-07-09T05:18:04;13.50;99.90
4856;DHT22;2442;48.676;7.986;2022-07-09T05:20:31;13.80;99.90
4856;DHT22;2442;48.676;7.986;2022-07-09T05:22:59;13.80;99.90
4856;DHT22;2442;48.676;7.986;2022-07-09T05:25:26;13.90;99.90
4856;DHT22;2442;48.676;7.986;2022-07-09T05:27:52;13.80;99.90
4856;DHT22;2442;48.676;7.986;2022-07-09T05:30:19;13.70;99.90
4856;DHT22;2442;48.676;7.986;2022-07-09T05:32:46;13.70;99.90
4856;DHT22;2442;48.676;7.986;2022-07-09T05:35:13;13.80;99.90
4856;DHT22;2442;48.676;7.986;2022-07-09T05:37:41;14.00;99.90
4856;DHT22;2442;48.676;7.986;2022-07-09T05:40:10;14.10;99.90
4856;DHT22;2442;48.676;7.986;2022-07-09T05:42:38;14.20;99.90
4856;DHT22;2442;48.676;7.986;2022-07-09T05:45:06;14.50;99.90
4856;DHT22;2442;48.676;7.986;2022-07-09T05:47:33;14.60;99.90
4856;DHT22;2442;48.676;7.986;2022-07-09T05:49:59;14.80;99.90
4856;DHT22;2442;48.676;7.986;2022-07-09T05:52:26;15.00;99.90
4856;DHT22;2442;48.676;7.986;2022-07-09T05:54:53;15.00;99.90
4856;DHT22;2442;48.676;7.986;2022-07-09T05:57:21;15.30;99.90
4856;DHT22;2442;48.676;7.986;2022-07-09T05:59:48;15.50;99.90
4856;DHT22;2442;48.676;7.986;2022-07-09T06:02:15;15.60;99.90
4856;DHT22;2442;48.676;7.986;2022-07-09T06:04:41;15.70;99.90
4856;DHT22;2442;48.676;7.986;2022-07-09T06:07:08;15.80;99.90
4856;DHT22;2442;48.676;7.986;2022-07-09T06:09:35;16.10;99.90
4856;DHT22;2442;48.676;7.986;2022-07-09T06:12:03;16.30;99.90
4856;DHT22;2442;48.676;7.986;2022-07-09T06:14:32;16.80;99.90
4856;DHT22;2442;48.676;7.986;2022-07-09T06:16:58;17.00;99.90
4856;DHT22;2442;48.676;7.986;2022-07-09T06:19:31;17.20;99.90
4856;DHT22;2442;48.676;7.986;2022-07-09T06:21:58;17.40;99.90
4856;DHT22;2442;48.676;7.986;2022-07-09T06:24:25;17.60;99.90
4856;DHT22;2442;48.676;7.986;2022-07-09T06:26:51;17.90;99.90
4856;DHT22;2442;48.676;7.986;2022-07-09T06:29:18;18.30;99.90
4856;DHT22;2442;48.676;7.986;2022-07-09T06:31:46;18.20;99.90
4856;DHT22;2442;48.676;7.986;2022-07-09T06:34:13;17.70;99.90
4856;DHT22;2442;48.676;7.986;2022-07-09T06:36:40;17.50;99.90
4856;DHT22;2442;48.676;7.986;2022-07-09T06:39:09;17.40;99.90
4856;DHT22;2442;48.676;7.986;2022-07-09T06:41:54;17.20;99.90
4856;DHT22;2442;48.676;7.986;2022-07-09T06:44:21;17.30;99.90
4856;DHT22;2442;48.676;7.986;2022-07-09T06:46:49;17.40;99.90
4856;DHT22;2442;48.676;7.986;2022-07-09T06:49:16;17.60;99.90
4856;DHT22;2442;48.676;7.986;2022-07-09T06:51:43;17.70;99.90
4856;DHT22;2442;48.676;7.986;2022-07-09T06:54:10;17.90;99.90
4856;DHT22;2442;48.676;7.986;2022-07-09T06:56:37;18.00;99.90
4856;DHT22;2442;48.676;7.986;2022-07-09T06:59:03;18.30;99.90
4856;DHT22;2442;48.676;7.986;2022-07-09T07:01:30;18.70;99.90
4856;DHT22;2442;48.676;7.986;2022-07-09T07:03:59;19.20;99.90
4856;DHT22;2442;48.676;7.986;2022-07-09T07:06:25;19.30;99.90
4856;DHT22;2442;48.676;7.986;2022-07-09T07:08:52;19.40;99.90
4856;DHT22;2442;48.676;7.986;2022-07-09T07:11:19;19.80;99.90
4856;DHT22;2442;48.676;7.986;2022-07-09T07:13:46;20.10;99.90
4856;DHT22;2442;48.676;7.986;2022-07-09T07:16:13;20.40;99.90
4856;DHT22;2442;48.676;7.986;2022-07-09T07:18:39;20.50;99.90
4856;DHT22;2442;48.676;7.986;2022-07-09T07:21:08;20.80;99.90
4856;DHT22;2442;48.676;7.986;2022-07-09T07:23:34;20.10;99.90
4856;DHT22;2442;48.676;7.986;2022-07-09T07:26:01;20.40;99.90
4856;DHT22;2442;48.676;7.986;2022-07-09T07:28:29;20.70;99.90
4856;DHT22;2442;48.676;7.986;2022-07-09T07:30:56;20.60;99.90
4856;DHT22;2442;48.676;7.986;2022-07-09T07:33:22;20.50;99.90
4856;DHT22;2442;48.676;7.986;2022-07-09T07:35:49;20.40;99.90
4856;DHT22;2442;48.676;7.986;2022-07-09T07:38:17;20.50;99.90
4856;DHT22;2442;48.676;7.986;2022-07-09T07:40:44;21.00;99.90
4856;DHT22;2442;48.676;7.986;2022-07-09T07:43:11;20.70;99.90
4856;DHT22;2442;48.676;7.986;2022-07-09T07:45:38;20.80;99.90
4856;DHT22;2442;48.676;7.986;2022-07-09T07:48:05;20.80;99.90
4856;DHT22;2442;48.676;7.986;2022-07-09T07:50:32;21.30;99.90
4856;DHT22;2442;48.676;7.986;2022-07-09T07:53:04;21.80;99.90
4856;DHT22;2442;48.676;7.986;2022-07-09T07:55:32;22.00;99.90
4856;DHT22;2442;48.676;7.986;2022-07-09T07:57:59;21.60;99.90
4856;DHT22;2442;48.676;7.986;2022-07-09T08:00:25;21.60;99.90
4856;DHT22;2442;48.676;7.986;2022-07-09T08:02:52;22.00;99.90
4856;DHT22;2442;48.676;7.986;2022-07-09T08:05:20;21.70;99.90
4856;DHT22;2442;48.676;7.986;2022-07-09T08:07:47;22.00;99.90
4856;DHT22;2442;48.676;7.986;2022-07-09T08:10:13;21.60;99.90
4856;DHT22;2442;48.676;7.986;2022-07-09T08:12:42;21.20;99.90
4856;DHT22;2442;48.676;7.986;2022-07-09T08:15:09;21.20;99.90
4856;DHT22;2442;48.676;7.986;2022-07-09T08:17:36;21.70;99.90
4856;DHT22;2442;48.676;7.986;2022-07-09T08:20:03;22.10;99.90
4856;DHT22;2442;48.676;7.986;2022-07-09T08:22:30;22.30;99.90
4856;DHT22;2442;48.676;7.986;2022-07-09T08:24:57;22.70;99.90
4856;DHT22;2442;48.676;7.986;2022-07-09T08:27:24;23.00;99.90
4856;DHT22;2442;48.676;7.986;2022-07-09T08:29:52;22.90;99.90
4856;DHT22;2442;48.676;7.986;2022-07-09T08:32:19;23.00;99.90
4856;DHT22;2442;48.676;7.986;2022-07-09T08:34:46;23.00;99.90
4856;DHT22;2442;48.676;7.986;2022-07-09T08:37:12;22.90;99.90
4856;DHT22;2442;48.676;7.986;2022-07-09T08:39:39;22.80;99.90
4856;DHT22;2442;48.676;7.986;2022-07-09T08:42:09;22.80;99.90
4856;DHT22;2442;48.676;7.986;2022-07-09T08:44:38;23.00;99.90
4856;DHT22;2442;48.676;7.986;2022-07-09T08:47:10;23.00;99.90
4856;DHT22;2442;48.676;7.986;2022-07-09T08:49:37;23.20;99.90
4856;DHT22;2442;48.676;7.986;2022-07-09T08:52:06;23.30;99.90
4856;DHT22;2442;48.676;7.986;2022-07-09T08:54:34;23.30;99.90
4856;DHT22;2442;48.676;7.986;2022-07-09T08:57:03;23.20;99.90
4856;DHT22;2442;48.676;7.986;2022-07-09T08:59:30;23.40;99.90
4856;DHT22;2442;48.676;7.986;2022-07-09T09:01:57;23.20;99.90
4856;DHT22;2442;48.676;7.986;2022-07-09T09:04:25;23.40;99.90
4856;DHT22;2442;48.676;7.986;2022-07-09T09:06:52;23.80;99.90
4856;DHT22;2442;48.676;7.986;2022-07-09T09:09:20;23.80;99.90
4856;DHT22;2442;48.676;7.986;2022-07-09T09:11:48;23.90;99.90
4856;DHT22;2442;48.676;7.986;2022-07-09T09:14:20;23.90;99.90
4856;DHT22;2442;48.676;7.986;2022-07-09T09:16:47;23.90;99.90
4856;DHT22;2442;48.676;7.986;2022-07-09T09:19:14;23.80;99.90
4856;DHT22;2442;48.676;7.986;2022-07-09T09:21:42;23.70;99.90
4856;DHT22;2442;48.676;7.986;2022-07-09T09:24:09;23.90;99.90
4856;DHT22;2442;48.676;7.986;2022-07-09T09:26:36;23.70;99.90
4856;DHT22;2442;48.676;7.986;2022-07-09T09:29:04;23.60;99.90
4856;DHT22;2442;48.676;7.986;2022-07-09T09:31:32;23.70;99.90
4856;DHT22;2442;48.676;7.986;2022-07-09T09:34:11;23.80;99.90
4856;DHT22;2442;48.676;7.986;2022-07-09T09:36:39;23.90;99.90
4856;DHT22;2442;48.676;7.986;2022-07-09T09:39:11;24.10;99.90
4856;DHT22;2442;48.676;7.986;2022-07-09T09:41:39;24.30;99.90
4856;DHT22;2442;48.676;7.986;2022-07-09T09:44:07;24.20;99.90
4856;DHT22;2442;48.676;7.986;2022-07-09T09:46:36;24.20;99.90
4856;DHT22;2442;48.676;7.986;2022-07-09T09:49:04;24.10;99.90
4856;DHT22;2442;48.676;7.986;2022-07-09T09:51:36;23.90;99.90
4856;DHT22;2442;48.676;7.986;2022-07-09T09:54:04;24.00;99.90
4856;DHT22;2442;48.676;7.986;2022-07-09T09:56:32;24.20;99.90
4856;DHT22;2442;48.676;7.986;2022-07-09T09:59:00;24.10;99.90
4856;DHT22;2442;48.676;7.986;2022-07-09T10:01:27;24.20;99.90
4856;DHT22;2442;48.676;7.986;2022-07-09T10:03:55;24.30;99.90
4856;DHT22;2442;48.676;7.986;2022-07-09T10:06:22;24.40;99.90
4856;DHT22;2442;48.676;7.986;2022-07-09T10:08:50;24.20;99.90
4856;DHT22;2442;48.676;7.986;2022-07-09T10:11:17;24.20;99.90
4856;DHT22;2442;48.676;7.986;2022-07-09T10:13:53;24.30;99.90
4856;DHT22;2442;48.676;7.986;2022-07-09T10:16:32;24.70;99.90
4856;DHT22;2442;48.676;7.986;2022-07-09T10:18:59;25.10;99.90
4856;DHT22;2442;48.676;7.986;2022-07-09T10:21:37;25.30;99.90
4856;DHT22;2442;48.676;7.986;2022-07-09T10:24:05;25.00;99.90
4856;DHT22;2442;48.676;7.986;2022-07-09T10:26:44;24.90;99.90
4856;DHT22;2442;48.676;7.986;2022-07-09T10:29:21;24.80;99.90
4856;DHT22;2442;48.676;7.986;2022-07-09T10:31:49;25.00;99.90
4856;DHT22;2442;48.676;7.986;2022-07-09T10:34:36;25.20;99.90
4856;DHT22;2442;48.676;7.986;2022-07-09T10:37:04;25.20;99.90
4856;DHT22;2442;48.676;7.986;2022-07-09T10:39:31;25.00;99.90
4856;DHT22;2442;48.676;7.986;2022-07-09T10:42:00;25.20;99.90
4856;DHT22;2442;48.676;7.986;2022-07-09T10:44:33;24.90;99.90
4856;DHT22;2442;48.676;7.986;2022-07-09T10:47:00;25.10;99.90
4856;DHT22;2442;48.676;7.986;2022-07-09T10:49:28;25.30;99.90
4856;DHT22;2442;48.676;7.986;2022-07-09T10:51:55;25.20;99.90
4856;DHT22;2442;48.676;7.986;2022-07-09T10:54:24;25.10;99.90
4856;DHT22;2442;48.676;7.986;2022-07-09T10:56:51;25.30;99.90
4856;DHT22;2442;48.676;7.986;2022-07-09T10:59:18;25.50;99.90
4856;DHT22;2442;48.676;7.986;2022-07-09T11:01:46;25.50;99.90
4856;DHT22;2442;48.676;7.986;2022-07-09T11:04:24;25.60;99.90
4856;DHT22;2442;48.676;7.986;2022-07-09T11:06:50;25.40;99.90
4856;DHT22;2442;48.676;7.986;2022-07-09T11:09:17;25.30;99.90
4856;DHT22;2442;48.676;7.986;2022-07-09T11:11:44;25.40;99.90
4856;DHT22;2442;48.676;7.986;2022-07-09T11:14:13;25.30;99.90
4856;DHT22;2442;48.676;7.986;2022-07-09T11:16:40;25.60;99.90
4856;DHT22;2442;48.676;7.986;2022-07-09T11:19:15;25.70;99.90
4856;DHT22;2442;48.676;7.986;2022-07-09T11:21:42;25.40;99.90
4856;DHT22;2442;48.676;7.986;2022-07-09T11:24:13;25.70;99.90
4856;DHT22;2442;48.676;7.986;2022-07-09T11:26:40;26.10;99.90
4856;DHT22;2442;48.676;7.986;2022-07-09T11:29:08;26.20;99.90
4856;DHT22;2442;48.676;7.986;2022-07-09T11:31:35;26.20;99.90
4856;DHT22;2442;48.676;7.986;2022-07-09T11:34:02;26.00;99.90
4856;DHT22;2442;48.676;7.986;2022-07-09T11:36:41;25.90;99.90
4856;DHT22;2442;48.676;7.986;2022-07-09T11:39:08;26.00;99.90
4856;DHT22;2442;48.676;7.986;2022-07-09T11:41:41;26.10;99.90
4856;DHT22;2442;48.676;7.986;2022-07-09T11:44:09;26.00;99.90
4856;DHT22;2442;48.676;7.986;2022-07-09T11:46:37;26.10;99.90
4856;DHT22;2442;48.676;7.986;2022-07-09T11:49:14;26.30;99.90
4856;DHT22;2442;48.676;7.986;2022-07-09T11:51:43;26.30;99.90
4856;DHT22;2442;48.676;7.986;2022-07-09T11:54:10;26.20;99.90
4856;DHT22;2442;48.676;7.986;2022-07-09T11:56:41;26.30;99.90
4856;DHT22;2442;48.676;7.986;2022-07-09T11:59:10;26.10;99.90
4856;DHT22;2442;48.676;7.986;2022-07-09T12:01:37;26.20;99.90
4856;DHT22;2442;48.676;7.986;2022-07-09T12:04:04;26.00;99.90
4856;DHT22;2442;48.676;7.986;2022-07-09T12:06:31;26.10;99.90
4856;DHT22;2442;48.676;7.986;2022-07-09T12:09:00;26.30;99.90
4856;DHT22;2442;48.676;7.986;2022-07-09T12:11:27;26.50;99.90
4856;DHT22;2442;48.676;7.986;2022-07-09T12:13:56;26.40;99.90
4856;DHT22;2442;48.676;7.986;2022-07-09T12:16:23;26.60;99.90
4856;DHT22;2442;48.676;7.986;2022-07-09T12:18:50;26.40;99.90
4856;DHT22;2442;48.676;7.986;2022-07-09T12:21:16;26.30;99.90
4856;DHT22;2442;48.676;7.986;2022-07-09T12:23:43;26.10;99.90
4856;DHT22;2442;48.676;7.986;2022-07-09T12:26:11;25.90;99.90
4856;DHT22;2442;48.676;7.986;2022-07-09T12:28:38;26.10;99.90
4856;DHT22;2442;48.676;7.986;2022-07-09T12:31:05;26.20;99.90
4856;DHT22;2442;48.676;7.986;2022-07-09T12:33:31;26.30;99.90
4856;DHT22;2442;48.676;7.986;2022-07-09T12:35:58;26.40;99.90
4856;DHT22;2442;48.676;7.986;2022-07-09T12:38:25;26.10;99.90
4856;DHT22;2442;48.676;7.986;2022-07-09T12:40:52;26.20;99.90
4856;DHT22;2442;48.676;7.986;2022-07-09T12:43:20;26.30;99.90
4856;DHT22;2442;48.676;7.986;2022-07-09T12:45:47;26.10;99.90
4856;DHT22;2442;48.676;7.986;2022-07-09T12:48:14;26.30;99.90
4856;DHT22;2442;48.676;7.986;2022-07-09T12:50:40;26.40;99.90
4856;DHT22;2442;48.676;7.986;2022-07-09T12:53:07;26.50;99.90
4856;DHT22;2442;48.676;7.986;2022-07-09T12:55:34;26.60;99.90
4856;DHT22;2442;48.676;7.986;2022-07-09T12:58:01;26.80;99.90
4856;DHT22;2442;48.676;7.986;2022-07-09T13:00:29;27.10;99.90
4856;DHT22;2442;48.676;7.986;2022-07-09T13:02:56;27.30;99.90
4856;DHT22;2442;48.676;7.986;2022-07-09T13:05:23;27.50;99.90
4856;DHT22;2442;48.676;7.986;2022-07-09T13:07:49;27.40;99.90
4856;DHT22;2442;48.676;7.986;2022-07-09T13:10:16;27.30;99.90
4856;DHT22;2442;48.676;7.986;2022-07-09T13:12:44;27.10;99.90
4856;DHT22;2442;48.676;7.986;2022-07-09T13:15:11;27.00;99.90
4856;DHT22;2442;48.676;7.986;2022-07-09T13:17:39;26.90;99.90
4856;DHT22;2442;48.676;7.986;2022-07-09T13:20:07;27.10;99.90
4856;DHT22;2442;48.676;7.986;2022-07-09T13:22:34;27.10;99.90
4856;DHT22;2442;48.676;7.986;2022-07-09T13:25:00;27.00;99.90
4856;DHT22;2442;48.676;7.986;2022-07-09T13:27:27;26.80;99.90
4856;DHT22;2442;48.676;7.986;2022-07-09T13:29:54;26.80;99.90
4856;DHT22;2442;48.676;7.986;2022-07-09T13:32:21;27.10;99.90
4856;DHT22;2442;48.676;7.986;2022-07-09T13:34:50;27.20;99.90
4856;DHT22;2442;48.676;7.986;2022-07-09T13:37:17;27.00;99.90
4856;DHT22;2442;48.676;7.986;2022-07-09T13:39:44;27.20;99.90
4856;DHT22;2442;48.676;7.986;2022-07-09T13:42:11;27.50;99.90
4856;DHT22;2442;48.676;7.986;2022-07-09T13:44:38;27.60;99.90
4856;DHT22;2442;48.676;7.986;2022-07-09T13:47:05;27.40;99.90
4856;DHT22;2442;48.676;7.986;2022-07-09T13:49:32;27.00;99.90
4856;DHT22;2442;48.676;7.986;2022-07-09T13:52:00;26.70;99.90
4856;DHT22;2442;48.676;7.986;2022-07-09T13:54:27;26.50;99.90
4856;DHT22;2442;48.676;7.986;2022-07-09T13:56:55;26.60;99.90
4856;DHT22;2442;48.676;7.986;2022-07-09T13:59:22;26.30;99.90
4856;DHT22;2442;48.676;7.986;2022-07-09T14:01:49;26.10;99.90
4856;DHT22;2442;48.676;7.986;2022-07-09T14:04:16;26.10;99.90
4856;DHT22;2442;48.676;7.986;2022-07-09T14:06:43;26.10;99.90
4856;DHT22;2442;48.676;7.986;2022-07-09T14:09:12;26.10;99.90
4856;DHT22;2442;48.676;7.986;2022-07-09T14:11:41;26.30;99.90
4856;DHT22;2442;48.676;7.986;2022-07-09T14:14:08;26.40;99.90
4856;DHT22;2442;48.676;7.986;2022-07-09T14:16:35;26.20;99.90
4856;DHT22;2442;48.676;7.986;2022-07-09T14:19:02;26.30;99.90
4856;DHT22;2442;48.676;7.986;2022-07-09T14:21:29;26.60;99.90
4856;DHT22;2442;48.676;7.986;2022-07-09T14:23:56;26.70;99.90
4856;DHT22;2442;48.676;7.986;2022-07-09T14:26:25;26.90;99.90
4856;DHT22;2442;48.676;7.986;2022-07-09T14:28:52;26.70;99.90
4856;DHT22;2442;48.676;7.986;2022-07-09T14:31:19;27.10;99.90
4856;DHT22;2442;48.676;7.986;2022-07-09T14:33:46;27.30;99.90
4856;DHT22;2442;48.676;7.986;2022-07-09T14:36:13;26.90;99.90
4856;DHT22;2442;48.676;7.986;2022-07-09T14:38:40;26.90;99.90
4856;DHT22;2442;48.676;7.986;2022-07-09T14:41:07;26.90;99.90
4856;DHT22;2442;48.676;7.986;2022-07-09T14:43:35;26.80;99.90
4856;DHT22;2442;48.676;7.986;2022-07-09T14:46:04;27.00;99.90
4856;DHT22;2442;48.676;7.986;2022-07-09T14:48:31;27.30;99.90
4856;DHT22;2442;48.676;7.986;2022-07-09T14:50:58;27.30;99.90
4856;DHT22;2442;48.676;7.986;2022-07-09T14:53:25;27.10;99.90
4856;DHT22;2442;48.676;7.986;2022-07-09T14:55:52;26.80;99.90
4856;DHT22;2442;48.676;7.986;2022-07-09T14:58:19;26.50;99.90
4856;DHT22;2442;48.676;7.986;2022-07-09T15:00:47;26.10;99.90
4856;DHT22;2442;48.676;7.986;2022-07-09T15:03:14;26.00;99.90
4856;DHT22;2442;48.676;7.986;2022-07-09T15:05:41;26.10;99.90
4856;DHT22;2442;48.676;7.986;2022-07-09T15:08:08;26.30;99.90
4856;DHT22;2442;48.676;7.986;2022-07-09T15:10:35;26.40;99.90
4856;DHT22;2442;48.676;7.986;2022-07-09T15:13:03;26.50;99.90
4856;DHT22;2442;48.676;7.986;2022-07-09T15:15:31;26.30;99.90
4856;DHT22;2442;48.676;7.986;2022-07-09T15:18:00;26.30;99.90
4856;DHT22;2442;48.676;7.986;2022-07-09T15:20:26;26.50;99.90
4856;DHT22;2442;48.676;7.986;2022-07-09T15:22:55;26.80;99.90
4856;DHT22;2442;48.676;7.986;2022-07-09T15:25:22;26.80;99.90
4856;DHT22;2442;48.676;7.986;2022-07-09T15:27:49;26.70;99.90
4856;DHT22;2442;48.676;7.986;2022-07-09T15:30:16;26.90;99.90
4856;DHT22;2442;48.676;7.986;2022-07-09T15:32:44;26.80;99.90
4856;DHT22;2442;48.676;7.986;2022-07-09T15:35:13;26.60;99.90
4856;DHT22;2442;48.676;7.986;2022-07-09T15:37:41;26.50;99.90
4856;DHT22;2442;48.676;7.986;2022-07-09T15:40:09;26.60;99.90
4856;DHT22;2442;48.676;7.986;2022-07-09T15:42:39;26.90;99.90
4856;DHT22;2442;48.676;7.986;2022-07-09T15:45:07;26.90;99.90
4856;DHT22;2442;48.676;7.986;2022-07-09T15:47:36;26.70;99.90
4856;DHT22;2442;48.676;7.986;2022-07-09T15:50:04;26.50;99.90
4856;DHT22;2442;48.676;7.986;2022-07-09T15:52:34;26.60;99.90
4856;DHT22;2442;48.676;7.986;2022-07-09T15:55:04;26.60;99.90
4856;DHT22;2442;48.676;7.986;2022-07-09T15:57:31;26.70;99.90
4856;DHT22;2442;48.676;7.986;2022-07-09T15:59:58;26.70;99.90
4856;DHT22;2442;48.676;7.986;2022-07-09T16:02:25;26.50;99.90
4856;DHT22;2442;48.676;7.986;2022-07-09T16:04:52;26.40;99.90
4856;DHT22;2442;48.676;7.986;2022-07-09T16:07:19;26.50;99.90